sensor_id;sensor_type;location;lat;lon;timestamp;pressure;altitude;pressure_sealevel;temperature;humidity
53754;BME280;39667;52.274;20.964;2024-01-15T00:02:02;98194.52;;;0.84;91.59
53754;BME280;39667;52.274;20.964;2024-01-15T00:04:35;98190.35;;;0.87;91.88
53754;BME280;39667;52.274;20.964;2024-01-15T00:07:04;98187.06;;;0.87;91.46
53754;BME280;39667;52.274;20.964;2024-01-15T00:09:34;98180.80;;;0.89;91.51
53754;BME280;39667;52.274;20.964;2024-01-15T00:12:02;98173.36;;;0.90;91.48
53754;BME280;39667;52.274;20.964;2024-01-15T00:14:30;98165.54;;;0.90;91.11
53754;BME280;39667;52.274;20.964;2024-01-15T00:16:58;98158.27;;;0.89;91.07
53754;BME280;39667;52.274;20.964;2024-01-15T00:19:25;98154.47;;;0.86;91.04
53754;BME280;39667;52.274;20.964;2024-01-15T00:22:00;98153.09;;;0.86;91.42
53754;BME280;39667;52.274;20.964;2024-01-15T00:24:28;98150.33;;;0.85;91.24
53754;BME280;39667;52.274;20.964;2024-01-15T00:26:55;98147.03;;;0.86;91.31
53754;BME280;39667;52.274;20.964;2024-01-15T00:29:29;98147.73;;;0.85;91.20
53754;BME280;39667;52.274;20.964;2024-01-15T00:32:00;98135.77;;;0.86;91.25
53754;BME280;39667;52.274;20.964;2024-01-15T00:34:31;98128.31;;;0.85;91.16
53754;BME280;39667;52.274;20.964;2024-01-15T00:36:59;98123.81;;;0.84;90.93
53754;BME280;39667;52.274;20.964;2024-01-15T00:39:26;98123.80;;;0.85;91.21
53754;BME280;39667;52.274;20.964;2024-01-15T00:41:57;98121.34;;;0.91;91.26
53754;BME280;39667;52.274;20.964;2024-01-15T00:44:24;98117.68;;;0.94;91.19
53754;BME280;39667;52.274;20.964;2024-01-15T00:46:51;98112.29;;;0.97;91.01
53754;BME280;39667;52.274;20.964;2024-01-15T00:49:19;98110.02;;;1.02;90.84
53754;BME280;39667;52.274;20.964;2024-01-15T00:51:47;98101.70;;;1.00;90.06
53754;BME280;39667;52.274;20.964;2024-01-15T00:54:15;98103.84;;;0.91;89.86
53754;BME280;39667;52.274;20.964;2024-01-15T00:56:42;98097.98;;;0.87;90.13
53754;BME280;39667;52.274;20.964;2024-01-15T00:59:10;98094.70;;;0.85;90.35
53754;BME280;39667;52.274;20.964;2024-01-15T01:01:42;98093.83;;;0.85;90.57
53754;BME280;39667;52.274;20.964;2024-01-15T01:04:11;98095.38;;;0.90;90.79
53754;BME280;39667;52.274;20.964;2024-01-15T01:06:40;98092.25;;;0.89;90.79
53754;BME280;39667;52.274;20.964;2024-01-15T01:09:07;98094.86;;;0.89;91.05
53754;BME280;39667;52.274;20.964;2024-01-15T01:11:37;98088.43;;;0.89;91.01
53754;BME280;39667;52.274;20.964;2024-01-15T01:14:07;98084.64;;;0.85;90.87
53754;BME280;39667;52.274;20.964;2024-01-15T01:16:34;98081.37;;;0.83;90.97
53754;BME280;39667;52.274;20.964;2024-01-15T01:19:06;98074.48;;;0.76;90.94
53754;BME280;39667;52.274;20.964;2024-01-15T01:21:35;98071.22;;;0.72;91.49
53754;BME280;39667;52.274;20.964;2024-01-15T01:24:02;98074.17;;;0.70;91.74
53754;BME280;39667;52.274;20.964;2024-01-15T01:26:30;98076.94;;;0.73;91.90
53754;BME280;39667;52.274;20.964;2024-01-15T01:28:57;98075.23;;;0.69;91.85
53754;BME280;39667;52.274;20.964;2024-01-15T01:31:25;98070.52;;;0.72;92.36
53754;BME280;39667;52.274;20.964;2024-01-15T01:33:53;98070.52;;;0.75;92.27
53754;BME280;39667;52.274;20.964;2024-01-15T01:36:21;98060.45;;;0.77;92.05
53754;BME280;39667;52.274;20.964;2024-01-15T01:38:49;98061.50;;;0.74;91.99
53754;BME280;39667;52.274;20.964;2024-01-15T01:41:16;98056.30;;;0.74;92.24
53754;BME280;39667;52.274;20.964;2024-01-15T01:43:44;98050.60;;;0.73;92.02
53754;BME280;39667;52.274;20.964;2024-01-15T01:46:14;98050.64;;;0.67;91.89
53754;BME280;39667;52.274;20.964;2024-01-15T01:48:42;98043.21;;;0.65;92.26
53754;BME280;39667;52.274;20.964;2024-01-15T01:51:10;98038.02;;;0.62;92.26
53754;BME280;39667;52.274;20.964;2024-01-15T01:53:38;98029.73;;;0.59;92.35
53754;BME280;39667;52.274;20.964;2024-01-15T01:56:05;98030.27;;;0.56;92.52
53754;BME280;39667;52.274;20.964;2024-01-15T01:58:33;98032.31;;;0.60;92.86
53754;BME280;39667;52.274;20.964;2024-01-15T02:01:01;98030.77;;;0.58;92.46
53754;BME280;39667;52.274;20.964;2024-01-15T02:03:30;98029.03;;;0.59;92.84
53754;BME280;39667;52.274;20.964;2024-01-15T02:05:59;98027.27;;;0.64;92.87
53754;BME280;39667;52.274;20.964;2024-01-15T02:08:27;98023.46;;;0.65;92.37
53754;BME280;39667;52.274;20.964;2024-01-15T02:10:55;98026.76;;;0.65;92.24
53754;BME280;39667;52.274;20.964;2024-01-15T02:13:22;98017.92;;;0.65;92.31
53754;BME280;39667;52.274;20.964;2024-01-15T02:15:49;98019.29;;;0.67;92.28
53754;BME280;39667;52.274;20.964;2024-01-15T02:18:17;98014.41;;;0.69;92.18
53754;BME280;39667;52.274;20.964;2024-01-15T02:20:45;98003.33;;;0.70;92.01
53754;BME280;39667;52.274;20.964;2024-01-15T02:23:14;97999.65;;;0.73;92.04
53754;BME280;39667;52.274;20.964;2024-01-15T02:26:01;97995.63;;;0.77;91.86
53754;BME280;39667;52.274;20.964;2024-01-15T02:28:28;97999.64;;;0.76;91.39
53754;BME280;39667;52.274;20.964;2024-01-15T02:30:55;97993.21;;;0.77;91.57
53754;BME280;39667;52.274;20.964;2024-01-15T02:33:23;97984.56;;;0.77;91.34
53754;BME280;39667;52.274;20.964;2024-01-15T02:35:53;97984.36;;;0.81;91.43
53754;BME280;39667;52.274;20.964;2024-01-15T02:38:20;97980.20;;;0.80;91.01
53754;BME280;39667;52.274;20.964;2024-01-15T02:40:49;97979.16;;;0.80;91.06
53754;BME280;39667;52.274;20.964;2024-01-15T02:43:16;97972.26;;;0.77;90.81
53754;BME280;39667;52.274;20.964;2024-01-15T02:45:46;97970.85;;;0.78;90.98
53754;BME280;39667;52.274;20.964;2024-01-15T02:48:14;97966.86;;;0.79;90.67
53754;BME280;39667;52.274;20.964;2024-01-15T02:50:42;97963.41;;;0.77;90.60
53754;BME280;39667;52.274;20.964;2024-01-15T02:53:09;97958.94;;;0.74;90.71
53754;BME280;39667;52.274;20.964;2024-01-15T02:55:36;97957.23;;;0.71;90.53
53754;BME280;39667;52.274;20.964;2024-01-15T02:58:03;97950.65;;;0.71;90.80
53754;BME280;39667;52.274;20.964;2024-01-15T03:00:34;97945.08;;;0.74;90.71
53754;BME280;39667;52.274;20.964;2024-01-15T03:03:02;97937.96;;;0.75;90.64
53754;BME280;39667;52.274;20.964;2024-01-15T03:05:29;97932.95;;;0.74;90.74
53754;BME280;39667;52.274;20.964;2024-01-15T03:07:56;97924.14;;;0.73;90.52
53754;BME280;39667;52.274;20.964;2024-01-15T03:10:23;97920.83;;;0.73;90.56
53754;BME280;39667;52.274;20.964;2024-01-15T03:12:51;97919.05;;;0.77;90.70
53754;BME280;39667;52.274;20.964;2024-01-15T03:15:18;97917.52;;;0.76;90.80
53754;BME280;39667;52.274;20.964;2024-01-15T03:17:47;97917.02;;;0.73;90.76
53754;BME280;39667;52.274;20.964;2024-01-15T03:20:14;97911.89;;;0.67;90.82
53754;BME280;39667;52.274;20.964;2024-01-15T03:22:42;97914.52;;;0.62;91.10
53754;BME280;39667;52.274;20.964;2024-01-15T03:25:09;97911.42;;;0.59;91.32
53754;BME280;39667;52.274;20.964;2024-01-15T03:27:36;97907.48;;;0.55;91.57
53754;BME280;39667;52.274;20.964;2024-01-15T03:30:04;97899.52;;;0.53;91.76
53754;BME280;39667;52.274;20.964;2024-01-15T03:32:31;97901.61;;;0.52;91.86
53754;BME280;39667;52.274;20.964;2024-01-15T03:34:59;97899.54;;;0.52;91.98
53754;BME280;39667;52.274;20.964;2024-01-15T03:37:27;97895.93;;;0.48;92.20
53754;BME280;39667;52.274;20.964;2024-01-15T03:39:54;97891.80;;;0.46;92.39
53754;BME280;39667;52.274;20.964;2024-01-15T03:42:23;97889.91;;;0.44;92.29
53754;BME280;39667;52.274;20.964;2024-01-15T03:44:52;97888.54;;;0.43;92.37
53754;BME280;39667;52.274;20.964;2024-01-15T03:47:19;97880.72;;;0.45;92.38
53754;BME280;39667;52.274;20.964;2024-01-15T03:49:46;97877.11;;;0.45;92.37
53754;BME280;39667;52.274;20.964;2024-01-15T03:52:14;97872.08;;;0.43;92.36
53754;BME280;39667;52.274;20.964;2024-01-15T03:54:41;97867.38;;;0.46;92.29
53754;BME280;39667;52.274;20.964;2024-01-15T03:57:09;97865.30;;;0.45;92.00
53754;BME280;39667;52.274;20.964;2024-01-15T03:59:37;97867.77;;;0.43;91.93
53754;BME280;39667;52.274;20.964;2024-01-15T04:02:06;97867.05;;;0.44;92.05
53754;BME280;39667;52.274;20.964;2024-01-15T04:04:33;97862.89;;;0.44;92.18
53754;BME280;39667;52.274;20.964;2024-01-15T04:07:00;97851.59;;;0.48;92.26
53754;BME280;39667;52.274;20.964;2024-01-15T04:09:30;97853.50;;;0.49;91.94
53754;BME280;39667;52.274;20.964;2024-01-15T04:11:58;97852.48;;;0.46;91.84
53754;BME280;39667;52.274;20.964;2024-01-15T04:14:26;97844.54;;;0.44;91.87
53754;BME280;39667;52.274;20.964;2024-01-15T04:16:54;97841.80;;;0.41;91.75
53754;BME280;39667;52.274;20.964;2024-01-15T04:19:23;97836.94;;;0.43;91.92
53754;BME280;39667;52.274;20.964;2024-01-15T04:21:50;97829.41;;;0.50;92.34
53754;BME280;39667;52.274;20.964;2024-01-15T04:24:18;97816.54;;;0.56;91.96
53754;BME280;39667;52.274;20.964;2024-01-15T04:26:49;97809.77;;;0.57;91.42
53754;BME280;39667;52.274;20.964;2024-01-15T04:29:16;97808.52;;;0.60;91.54
53754;BME280;39667;52.274;20.964;2024-01-15T04:31:43;97805.20;;;0.65;91.41
53754;BME280;39667;52.274;20.964;2024-01-15T04:34:11;97795.98;;;0.67;90.97
53754;BME280;39667;52.274;20.964;2024-01-15T04:36:40;97792.73;;;0.64;90.82
53754;BME280;39667;52.274;20.964;2024-01-15T04:39:08;97788.39;;;0.65;90.57
53754;BME280;39667;52.274;20.964;2024-01-15T04:41:36;97781.62;;;0.66;90.47
53754;BME280;39667;52.274;20.964;2024-01-15T04:44:04;97786.13;;;0.67;90.28
53754;BME280;39667;52.274;20.964;2024-01-15T04:46:32;97780.05;;;0.68;90.22
53754;BME280;39667;52.274;20.964;2024-01-15T04:49:02;97776.90;;;0.69;90.12
53754;BME280;39667;52.274;20.964;2024-01-15T04:51:29;97780.56;;;0.68;89.30
53754;BME280;39667;52.274;20.964;2024-01-15T04:53:58;97776.50;;;0.59;88.99
53754;BME280;39667;52.274;20.964;2024-01-15T04:56:28;97779.66;;;0.55;89.12
53754;BME280;39667;52.274;20.964;2024-01-15T04:58:57;97771.70;;;0.55;89.19
53754;BME280;39667;52.274;20.964;2024-01-15T05:01:33;97777.05;;;0.56;89.28
53754;BME280;39667;52.274;20.964;2024-01-15T05:04:03;97773.41;;;0.56;88.97
53754;BME280;39667;52.274;20.964;2024-01-15T05:06:31;97773.09;;;0.54;89.10
53754;BME280;39667;52.274;20.964;2024-01-15T05:09:01;97770.61;;;0.58;89.20
53754;BME280;39667;52.274;20.964;2024-01-15T05:11:30;97768.52;;;0.59;88.85
53754;BME280;39667;52.274;20.964;2024-01-15T05:14:17;97774.27;;;0.56;88.96
53754;BME280;39667;52.274;20.964;2024-01-15T05:16:51;97765.59;;;0.59;89.16
53754;BME280;39667;52.274;20.964;2024-01-15T05:19:19;97761.41;;;0.60;88.85
53754;BME280;39667;52.274;20.964;2024-01-15T05:21:47;97759.81;;;0.63;88.99
53754;BME280;39667;52.274;20.964;2024-01-15T05:24:16;97756.52;;;0.65;88.77
53754;BME280;39667;52.274;20.964;2024-01-15T05:26:43;97752.70;;;0.66;88.66
53754;BME280;39667;52.274;20.964;2024-01-15T05:29:11;97748.22;;;0.63;88.57
53754;BME280;39667;52.274;20.964;2024-01-15T05:31:38;97753.56;;;0.66;88.64
53754;BME280;39667;52.274;20.964;2024-01-15T05:34:05;97753.73;;;0.67;88.50
53754;BME280;39667;52.274;20.964;2024-01-15T05:36:32;97756.15;;;0.67;88.65
53754;BME280;39667;52.274;20.964;2024-01-15T05:39:00;97761.88;;;0.66;88.74
53754;BME280;39667;52.274;20.964;2024-01-15T05:41:28;97754.92;;;0.68;88.54
53754;BME280;39667;52.274;20.964;2024-01-15T05:43:56;97753.44;;;0.61;87.92
53754;BME280;39667;52.274;20.964;2024-01-15T05:46:23;97747.41;;;0.58;88.28
53754;BME280;39667;52.274;20.964;2024-01-15T05:48:50;97751.27;;;0.53;88.02
53754;BME280;39667;52.274;20.964;2024-01-15T05:51:19;97745.91;;;0.53;88.42
53754;BME280;39667;52.274;20.964;2024-01-15T05:53:46;97743.80;;;0.56;88.38
53754;BME280;39667;52.274;20.964;2024-01-15T05:56:17;97747.61;;;0.56;88.35
53754;BME280;39667;52.274;20.964;2024-01-15T05:58:44;97743.60;;;0.57;88.29
53754;BME280;39667;52.274;20.964;2024-01-15T06:01:17;97734.45;;;0.56;88.45
53754;BME280;39667;52.274;20.964;2024-01-15T06:03:45;97736.55;;;0.54;88.98
53754;BME280;39667;52.274;20.964;2024-01-15T06:06:13;97736.59;;;0.50;88.82
53754;BME280;39667;52.274;20.964;2024-01-15T06:08:40;97738.38;;;0.45;88.89
53754;BME280;39667;52.274;20.964;2024-01-15T06:11:08;97740.62;;;0.45;89.00
53754;BME280;39667;52.274;20.964;2024-01-15T06:13:35;97730.59;;;0.44;88.93
53754;BME280;39667;52.274;20.964;2024-01-15T06:16:04;97724.02;;;0.44;88.97
53754;BME280;39667;52.274;20.964;2024-01-15T06:18:38;97721.95;;;0.43;88.85
53754;BME280;39667;52.274;20.964;2024-01-15T06:21:06;97725.77;;;0.43;88.91
53754;BME280;39667;52.274;20.964;2024-01-15T06:23:34;97728.14;;;0.46;88.78
53754;BME280;39667;52.274;20.964;2024-01-15T06:26:01;97725.39;;;0.45;88.75
53754;BME280;39667;52.274;20.964;2024-01-15T06:28:30;97716.20;;;0.46;88.62
53754;BME280;39667;52.274;20.964;2024-01-15T06:30:59;97718.98;;;0.45;88.48
53754;BME280;39667;52.274;20.964;2024-01-15T06:34:06;97717.27;;;0.44;88.46
53754;BME280;39667;52.274;20.964;2024-01-15T06:36:36;97720.91;;;0.42;88.50
53754;BME280;39667;52.274;20.964;2024-01-15T06:39:04;97715.75;;;0.39;88.47
53754;BME280;39667;52.274;20.964;2024-01-15T06:41:33;97708.82;;;0.40;88.69
53754;BME280;39667;52.274;20.964;2024-01-15T06:44:03;97708.14;;;0.39;88.70
53754;BME280;39667;52.274;20.964;2024-01-15T06:46:35;97702.23;;;0.40;88.79
53754;BME280;39667;52.274;20.964;2024-01-15T06:49:04;97706.90;;;0.41;88.80
53754;BME280;39667;52.274;20.964;2024-01-15T06:51:36;97707.52;;;0.47;89.02
53754;BME280;39667;52.274;20.964;2024-01-15T06:54:04;97706.27;;;0.51;88.45
53754;BME280;39667;52.274;20.964;2024-01-15T06:56:33;97703.17;;;0.50;88.18
53754;BME280;39667;52.274;20.964;2024-01-15T06:59:02;97710.48;;;0.46;87.81
53754;BME280;39667;52.274;20.964;2024-01-15T07:01:34;97717.27;;;0.43;87.99
53754;BME280;39667;52.274;20.964;2024-01-15T07:04:04;97716.75;;;0.43;88.14
53754;BME280;39667;52.274;20.964;2024-01-15T07:06:32;97721.09;;;0.42;88.43
53754;BME280;39667;52.274;20.964;2024-01-15T07:09:01;97720.56;;;0.43;88.62
53754;BME280;39667;52.274;20.964;2024-01-15T07:11:29;97711.36;;;0.46;88.41
53754;BME280;39667;52.274;20.964;2024-01-15T07:13:57;97709.77;;;0.48;88.22
53754;BME280;39667;52.274;20.964;2024-01-15T07:16:25;97713.77;;;0.47;89.04
53754;BME280;39667;52.274;20.964;2024-01-15T07:19:04;97710.33;;;0.45;89.66
53754;BME280;39667;52.274;20.964;2024-01-15T07:21:31;97705.49;;;0.43;89.50
53754;BME280;39667;52.274;20.964;2024-01-15T07:23:59;97710.52;;;0.43;89.96
53754;BME280;39667;52.274;20.964;2024-01-15T07:26:30;97719.50;;;0.45;90.20
53754;BME280;39667;52.274;20.964;2024-01-15T07:29:00;97710.13;;;0.46;90.61
53754;BME280;39667;52.274;20.964;2024-01-15T07:31:37;97713.29;;;0.43;90.49
53754;BME280;39667;52.274;20.964;2024-01-15T07:34:26;97711.95;;;0.38;90.63
53754;BME280;39667;52.274;20.964;2024-01-15T07:37:15;97716.09;;;0.41;91.39
53754;BME280;39667;52.274;20.964;2024-01-15T07:40:13;97712.63;;;0.40;91.33
53754;BME280;39667;52.274;20.964;2024-01-15T07:43:09;97718.86;;;0.40;91.48
53754;BME280;39667;52.274;20.964;2024-01-15T07:46:16;97715.78;;;0.37;91.12
53754;BME280;39667;52.274;20.964;2024-01-15T07:48:47;97720.16;;;0.33;91.00
53754;BME280;39667;52.274;20.964;2024-01-15T07:51:36;97720.13;;;0.35;90.90
53754;BME280;39667;52.274;20.964;2024-01-15T07:57:01;97720.39;;;0.43;89.83
53754;BME280;39667;52.274;20.964;2024-01-15T07:59:32;97723.23;;;0.37;89.53
53754;BME280;39667;52.274;20.964;2024-01-15T08:02:04;97722.23;;;0.34;89.49
53754;BME280;39667;52.274;20.964;2024-01-15T08:04:32;97715.20;;;0.25;91.48
53754;BME280;39667;52.274;20.964;2024-01-15T08:07:00;97725.63;;;0.21;92.58
53754;BME280;39667;52.274;20.964;2024-01-15T08:09:37;97724.41;;;0.21;92.68
53754;BME280;39667;52.274;20.964;2024-01-15T08:12:08;97721.52;;;0.18;92.48
53754;BME280;39667;52.274;20.964;2024-01-15T08:14:37;97714.26;;;0.17;92.65
53754;BME280;39667;52.274;20.964;2024-01-15T08:17:04;97716.18;;;0.15;92.41
53754;BME280;39667;52.274;20.964;2024-01-15T08:19:33;97721.55;;;0.15;92.50
53754;BME280;39667;52.274;20.964;2024-01-15T08:22:05;97718.05;;;0.19;92.51
53754;BME280;39667;52.274;20.964;2024-01-15T08:24:32;97719.77;;;0.20;92.12
53754;BME280;39667;52.274;20.964;2024-01-15T08:27:00;97723.20;;;0.23;91.95
53754;BME280;39667;52.274;20.964;2024-01-15T08:29:28;97710.66;;;0.29;91.74
53754;BME280;39667;52.274;20.964;2024-01-15T08:31:56;97721.70;;;0.33;91.15
53754;BME280;39667;52.274;20.964;2024-01-15T08:34:23;97721.49;;;0.37;90.76
53754;BME280;39667;52.274;20.964;2024-01-15T08:36:53;97721.27;;;0.42;90.21
53754;BME280;39667;52.274;20.964;2024-01-15T08:39:20;97724.17;;;0.45;89.58
53754;BME280;39667;52.274;20.964;2024-01-15T08:41:48;97722.36;;;0.52;89.48
53754;BME280;39667;52.274;20.964;2024-01-15T08:44:16;97727.85;;;0.57;89.25
53754;BME280;39667;52.274;20.964;2024-01-15T08:46:44;97724.90;;;0.57;88.43
53754;BME280;39667;52.274;20.964;2024-01-15T08:49:11;97719.70;;;0.57;88.25
53754;BME280;39667;52.274;20.964;2024-01-15T08:51:38;97730.45;;;0.57;87.58
53754;BME280;39667;52.274;20.964;2024-01-15T08:54:05;97735.98;;;0.57;87.53
53754;BME280;39667;52.274;20.964;2024-01-15T08:56:35;97726.85;;;0.54;87.83
53754;BME280;39667;52.274;20.964;2024-01-15T08:59:02;97739.84;;;0.53;88.72
53754;BME280;39667;52.274;20.964;2024-01-15T09:01:32;97739.16;;;0.52;89.04
53754;BME280;39667;52.274;20.964;2024-01-15T09:03:59;97746.13;;;0.48;89.09
53754;BME280;39667;52.274;20.964;2024-01-15T09:06:27;97749.30;;;0.43;89.51
53754;BME280;39667;52.274;20.964;2024-01-15T09:08:54;97748.77;;;0.44;89.99
53754;BME280;39667;52.274;20.964;2024-01-15T09:11:21;97754.30;;;0.47;89.87
53754;BME280;39667;52.274;20.964;2024-01-15T09:13:50;97735.72;;;0.51;89.61
53754;BME280;39667;52.274;20.964;2024-01-15T09:16:19;97741.13;;;0.47;89.42
53754;BME280;39667;52.274;20.964;2024-01-15T09:21:09;97738.98;;;0.52;89.64
53754;BME280;39667;52.274;20.964;2024-01-15T09:23:38;97729.80;;;0.68;88.92
53754;BME280;39667;52.274;20.964;2024-01-15T09:26:04;97732.18;;;0.86;88.25
53754;BME280;39667;52.274;20.964;2024-01-15T09:28:31;97729.36;;;1.02;87.86
53754;BME280;39667;52.274;20.964;2024-01-15T09:37:18;97709.63;;;1.00;84.83
53754;BME280;39667;52.274;20.964;2024-01-15T09:40:08;97732.44;;;0.94;84.99
53754;BME280;39667;52.274;20.964;2024-01-15T09:42:40;97726.68;;;0.96;84.79
53754;BME280;39667;52.274;20.964;2024-01-15T09:45:09;97720.92;;;0.99;84.54
53754;BME280;39667;52.274;20.964;2024-01-15T09:47:37;97721.52;;;1.06;84.42
53754;BME280;39667;52.274;20.964;2024-01-15T09:50:10;97710.16;;;1.14;84.17
53754;BME280;39667;52.274;20.964;2024-01-15T09:59:02;97716.42;;;1.11;82.13
53754;BME280;39667;52.274;20.964;2024-01-15T10:01:38;97716.71;;;1.03;81.98
53754;BME280;39667;52.274;20.964;2024-01-15T10:04:06;97715.50;;;1.03;81.87
53754;BME280;39667;52.274;20.964;2024-01-15T10:06:35;97714.45;;;1.03;80.61
53754;BME280;39667;52.274;20.964;2024-01-15T10:09:24;97711.19;;;1.01;80.28
53754;BME280;39667;52.274;20.964;2024-01-15T10:11:51;97706.15;;;1.02;80.88
53754;BME280;39667;52.274;20.964;2024-01-15T10:14:18;97704.56;;;1.05;80.64
53754;BME280;39667;52.274;20.964;2024-01-15T10:16:45;97703.32;;;1.05;80.19
53754;BME280;39667;52.274;20.964;2024-01-15T10:19:15;97706.11;;;1.05;80.36
53754;BME280;39667;52.274;20.964;2024-01-15T10:21:42;97710.77;;;1.07;80.08
53754;BME280;39667;52.274;20.964;2024-01-15T10:24:09;97714.05;;;1.07;79.07
53754;BME280;39667;52.274;20.964;2024-01-15T10:26:36;97713.23;;;1.04;78.81
53754;BME280;39667;52.274;20.964;2024-01-15T10:29:03;97708.39;;;1.03;78.91
53754;BME280;39667;52.274;20.964;2024-01-15T10:31:30;97710.98;;;1.04;79.05
53754;BME280;39667;52.274;20.964;2024-01-15T10:34:11;97714.78;;;1.04;79.34
53754;BME280;39667;52.274;20.964;2024-01-15T10:36:39;97708.98;;;0.98;80.31
53754;BME280;39667;52.274;20.964;2024-01-15T10:39:08;97695.91;;;0.90;79.91
53754;BME280;39667;52.274;20.964;2024-01-15T10:41:35;97703.14;;;0.94;80.52
53754;BME280;39667;52.274;20.964;2024-01-15T10:44:04;97697.23;;;0.96;79.70
53754;BME280;39667;52.274;20.964;2024-01-15T10:46:31;97705.59;;;0.91;79.64
53754;BME280;39667;52.274;20.964;2024-01-15T10:49:00;97706.27;;;0.93;80.19
53754;BME280;39667;52.274;20.964;2024-01-15T10:51:27;97702.75;;;0.97;80.02
53754;BME280;39667;52.274;20.964;2024-01-15T10:53:56;97708.94;;;1.00;79.70
53754;BME280;39667;52.274;20.964;2024-01-15T10:56:24;97703.02;;;1.03;79.84
53754;BME280;39667;52.274;20.964;2024-01-15T10:58:52;97698.92;;;0.99;79.73
53754;BME280;39667;52.274;20.964;2024-01-15T11:01:26;97709.64;;;1.00;80.23
53754;BME280;39667;52.274;20.964;2024-01-15T11:03:57;97711.98;;;1.06;80.40
53754;BME280;39667;52.274;20.964;2024-01-15T11:06:24;97706.86;;;1.01;79.69
53754;BME280;39667;52.274;20.964;2024-01-15T11:08:52;97699.79;;;0.98;80.37
53754;BME280;39667;52.274;20.964;2024-01-15T11:11:21;97698.02;;;1.01;80.83
53754;BME280;39667;52.274;20.964;2024-01-15T11:13:48;97711.92;;;0.98;80.60
53754;BME280;39667;52.274;20.964;2024-01-15T11:16:19;97702.55;;;0.99;80.76
53754;BME280;39667;52.274;20.964;2024-01-15T11:21:46;97692.77;;;0.92;80.36
53754;BME280;39667;52.274;20.964;2024-01-15T11:24:42;97693.48;;;0.91;80.55
53754;BME280;39667;52.274;20.964;2024-01-15T11:27:10;97697.52;;;0.86;80.64
53754;BME280;39667;52.274;20.964;2024-01-15T11:29:37;97691.59;;;0.90;80.95
53754;BME280;39667;52.274;20.964;2024-01-15T11:32:07;97693.81;;;0.92;80.60
53754;BME280;39667;52.274;20.964;2024-01-15T11:34:54;97685.02;;;0.89;80.93
53754;BME280;39667;52.274;20.964;2024-01-15T11:37:26;97679.50;;;0.87;80.78
53754;BME280;39667;52.274;20.964;2024-01-15T11:39:55;97685.06;;;0.84;81.18
53754;BME280;39667;52.274;20.964;2024-01-15T11:42:23;97686.30;;;0.83;81.59
53754;BME280;39667;52.274;20.964;2024-01-15T11:44:52;97678.29;;;0.86;81.30
53754;BME280;39667;52.274;20.964;2024-01-15T11:47:46;97679.81;;;0.90;80.28
53754;BME280;39667;52.274;20.964;2024-01-15T11:50:21;97689.02;;;0.87;80.72
53754;BME280;39667;52.274;20.964;2024-01-15T11:52:57;97671.71;;;0.85;80.62
53754;BME280;39667;52.274;20.964;2024-01-15T11:55:34;97682.29;;;0.85;80.85
53754;BME280;39667;52.274;20.964;2024-01-15T11:58:08;97692.44;;;0.91;80.57
53754;BME280;39667;52.274;20.964;2024-01-15T12:00:43;97679.63;;;0.90;80.11
53754;BME280;39667;52.274;20.964;2024-01-15T12:03:11;97677.27;;;0.85;80.21
53754;BME280;39667;52.274;20.964;2024-01-15T12:05:39;97674.92;;;0.78;80.35
53754;BME280;39667;52.274;20.964;2024-01-15T12:08:06;97677.39;;;0.76;81.02
53754;BME280;39667;52.274;20.964;2024-01-15T12:10:38;97678.95;;;0.76;80.97
53754;BME280;39667;52.274;20.964;2024-01-15T12:13:13;97684.05;;;0.81;81.22
53754;BME280;39667;52.274;20.964;2024-01-15T12:15:41;97680.10;;;0.80;82.32
53754;BME280;39667;52.274;20.964;2024-01-15T12:18:13;97692.27;;;0.78;82.10
53754;BME280;39667;52.274;20.964;2024-01-15T12:20:42;97675.64;;;0.77;81.75
53754;BME280;39667;52.274;20.964;2024-01-15T12:23:10;97664.80;;;0.71;82.37
53754;BME280;39667;52.274;20.964;2024-01-15T12:25:39;97670.91;;;0.68;82.78
53754;BME280;39667;52.274;20.964;2024-01-15T12:28:06;97674.13;;;0.73;82.75
53754;BME280;39667;52.274;20.964;2024-01-15T12:30:34;97664.45;;;0.72;82.37
53754;BME280;39667;52.274;20.964;2024-01-15T12:33:06;97659.80;;;0.70;82.64
53754;BME280;39667;52.274;20.964;2024-01-15T12:35:36;97665.53;;;0.69;82.72
53754;BME280;39667;52.274;20.964;2024-01-15T12:38:03;97673.73;;;0.65;83.96
53754;BME280;39667;52.274;20.964;2024-01-15T12:40:32;97666.20;;;0.57;86.18
53754;BME280;39667;52.274;20.964;2024-01-15T12:43:02;97663.58;;;0.44;88.25
53754;BME280;39667;52.274;20.964;2024-01-15T12:45:30;97660.25;;;0.32;88.50
53754;BME280;39667;52.274;20.964;2024-01-15T12:47:58;97666.53;;;0.28;88.64
53754;BME280;39667;52.274;20.964;2024-01-15T12:50:27;97669.69;;;0.26;88.27
53754;BME280;39667;52.274;20.964;2024-01-15T12:52:53;97659.23;;;0.31;88.31
53754;BME280;39667;52.274;20.964;2024-01-15T12:55:20;97674.20;;;0.40;87.83
53754;BME280;39667;52.274;20.964;2024-01-15T12:57:47;97674.53;;;0.40;87.53
53754;BME280;39667;52.274;20.964;2024-01-15T13:00:17;97669.30;;;0.44;87.40
53754;BME280;39667;52.274;20.964;2024-01-15T13:02:44;97667.15;;;0.50;87.35
53754;BME280;39667;52.274;20.964;2024-01-15T13:05:11;97665.74;;;0.50;86.64
53754;BME280;39667;52.274;20.964;2024-01-15T13:07:41;97669.64;;;0.44;85.99
53754;BME280;39667;52.274;20.964;2024-01-15T13:10:08;97671.63;;;0.38;86.33
53754;BME280;39667;52.274;20.964;2024-01-15T13:12:40;97684.08;;;0.38;86.27
53754;BME280;39667;52.274;20.964;2024-01-15T13:15:08;97690.02;;;0.33;86.41
53754;BME280;39667;52.274;20.964;2024-01-15T13:17:41;97698.21;;;0.29;87.06
53754;BME280;39667;52.274;20.964;2024-01-15T13:20:09;97693.37;;;0.28;87.45
53754;BME280;39667;52.274;20.964;2024-01-15T13:22:38;97676.77;;;0.28;87.87
53754;BME280;39667;52.274;20.964;2024-01-15T13:25:07;97677.87;;;0.20;88.23
53754;BME280;39667;52.274;20.964;2024-01-15T13:27:35;97679.70;;;0.11;88.71
53754;BME280;39667;52.274;20.964;2024-01-15T13:30:03;97678.20;;;0.06;89.00
53754;BME280;39667;52.274;20.964;2024-01-15T13:32:31;97678.89;;;0.07;89.00
53754;BME280;39667;52.274;20.964;2024-01-15T13:34:59;97690.45;;;0.09;88.91